createdAt,value
2023-01-11T00:02:23.021Z,9.17
2023-01-11T00:04:49.542Z,9.16
2023-01-11T00:07:15.942Z,9.18
2023-01-11T00:09:42.336Z,9.22
2023-01-11T00:12:12.224Z,9.24
2023-01-11T00:14:38.599Z,9.25
2023-01-11T00:17:05.029Z,9.29
2023-01-11T00:19:31.417Z,9.32
2023-01-11T00:21:57.799Z,9.38
2023-01-11T00:24:24.211Z,9.41
2023-01-11T00:26:50.669Z,9.44
2023-01-11T00:29:17.189Z,9.45
2023-01-11T00:31:43.661Z,9.47
2023-01-11T00:34:10.072Z,9.46
2023-01-11T00:36:36.519Z,9.48
2023-01-11T00:39:02.940Z,9.47
2023-01-11T00:41:47.854Z,9.50
2023-01-11T00:44:33.049Z,9.53
2023-01-11T00:47:17.881Z,9.52
2023-01-11T00:49:44.419Z,9.53
2023-01-11T00:52:10.942Z,9.53
2023-01-11T00:54:41.650Z,9.54
2023-01-11T00:57:08.813Z,9.55
2023-01-11T00:59:36.160Z,9.54
2023-01-11T01:02:03.420Z,9.57
2023-01-11T01:04:29.845Z,9.58
2023-01-11T01:06:56.366Z,9.58
2023-01-11T01:09:23.102Z,9.61
2023-01-11T01:11:49.608Z,9.64
2023-01-11T01:14:33.034Z,9.65
2023-01-11T01:17:04.106Z,9.67
2023-01-11T01:19:31.525Z,9.66
2023-01-11T01:21:59.374Z,9.69
2023-01-11T01:24:28.675Z,9.70
2023-01-11T01:26:55.957Z,9.72
2023-01-11T01:29:22.383Z,9.74
2023-01-11T01:31:48.941Z,9.74
2023-01-11T01:34:15.588Z,9.79
2023-01-11T01:36:42.061Z,9.82
2023-01-11T01:39:10.832Z,9.85
2023-01-11T01:41:37.981Z,9.88
2023-01-11T01:44:42.105Z,9.93
2023-01-11T01:47:09.283Z,9.96
2023-01-11T01:49:35.849Z,10.00
2023-01-11T01:52:02.485Z,10.01
2023-01-11T01:54:35.354Z,10.02
2023-01-11T01:57:09.719Z,10.05
2023-01-11T01:59:36.454Z,10.05
2023-01-11T02:02:03.095Z,10.08
2023-01-11T02:04:40.060Z,10.08
2023-01-11T02:07:14.509Z,10.09
2023-01-11T02:09:53.312Z,10.12
2023-01-11T02:12:20.069Z,10.15
2023-01-11T02:14:49.335Z,10.15
2023-01-11T02:17:15.833Z,10.16
2023-01-11T02:20:05.658Z,10.17
2023-01-11T02:22:40.985Z,10.19
2023-01-11T02:25:46.539Z,10.21
2023-01-11T02:28:34.896Z,10.22
2023-01-11T02:31:10.360Z,10.22
2023-01-11T02:34:01.558Z,10.22
2023-01-11T02:36:37.815Z,10.22
2023-01-11T02:39:26.661Z,10.24
2023-01-11T02:42:18.030Z,10.23
2023-01-11T02:45:01.924Z,10.24
2023-01-11T02:47:55.172Z,10.29
2023-01-11T02:50:53.743Z,10.31
2023-01-11T02:53:27.632Z,10.32
2023-01-11T02:55:59.648Z,10.36
2023-01-11T02:58:29.964Z,10.39
2023-01-11T03:00:58.387Z,10.41
2023-01-11T03:03:27.611Z,10.39
2023-01-11T03:05:59.800Z,10.38
2023-01-11T03:08:50.380Z,10.41
2023-01-11T03:11:53.854Z,10.45
2023-01-11T03:14:24.956Z,10.45
2023-01-11T03:17:12.417Z,10.46
2023-01-11T03:19:53.218Z,10.47
2023-01-11T03:22:31.579Z,10.48
2023-01-11T03:25:15.661Z,10.52
2023-01-11T03:28:13.510Z,10.54
2023-01-11T03:31:04.832Z,10.59
2023-01-11T03:33:48.303Z,10.61
2023-01-11T03:36:23.535Z,10.58
2023-01-11T03:39:05.552Z,10.60
2023-01-11T03:41:37.861Z,10.62
2023-01-11T03:44:07.816Z,10.61
2023-01-11T03:46:38.798Z,10.58
2023-01-11T03:49:10.865Z,10.57
2023-01-11T03:51:45.624Z,10.56
2023-01-11T03:54:17.176Z,10.53
2023-01-11T03:57:07.487Z,10.54
2023-01-11T03:59:34.609Z,10.53
2023-01-11T04:02:01.513Z,10.51
2023-01-11T04:04:28.618Z,10.50
2023-01-11T04:06:55.096Z,10.53
2023-01-11T04:09:21.809Z,10.53
2023-01-11T04:11:48.415Z,10.53
2023-01-11T04:14:14.965Z,10.51
2023-01-11T04:16:41.518Z,10.50
2023-01-11T04:19:08.021Z,10.51
2023-01-11T04:21:34.483Z,10.53
2023-01-11T04:24:00.911Z,10.55
2023-01-11T04:26:27.324Z,10.57
2023-01-11T04:28:54.480Z,10.61
2023-01-11T04:31:21.165Z,10.61
2023-01-11T04:33:47.652Z,10.62
2023-01-11T04:36:14.250Z,10.62
2023-01-11T04:38:40.655Z,10.62
2023-01-11T04:41:25.576Z,10.64
2023-01-11T04:43:56.264Z,10.62
2023-01-11T04:46:24.007Z,10.62
2023-01-11T04:48:50.848Z,10.61
2023-01-11T04:51:17.311Z,10.61
2023-01-11T04:53:43.705Z,10.62
2023-01-11T04:56:11.995Z,10.62
2023-01-11T04:58:38.454Z,10.61
2023-01-11T05:01:15.213Z,10.58
2023-01-11T05:03:41.871Z,10.60
2023-01-11T05:06:08.574Z,10.59
2023-01-11T05:08:35.122Z,10.61
2023-01-11T05:11:04.252Z,10.58
2023-01-11T05:13:43.078Z,10.56
2023-01-11T05:16:20.250Z,10.54
2023-01-11T05:18:49.228Z,10.55
2023-01-11T05:21:18.326Z,10.54
2023-01-11T05:23:45.675Z,10.50
2023-01-11T05:26:15.615Z,10.51
2023-01-11T05:28:42.078Z,10.47
2023-01-11T05:31:08.583Z,10.45
2023-01-11T05:33:35.443Z,10.44
2023-01-11T05:36:04.824Z,10.41
2023-01-11T05:38:31.813Z,10.40
2023-01-11T05:41:03.727Z,10.39
2023-01-11T05:43:30.597Z,10.36
2023-01-11T05:45:58.203Z,10.34
2023-01-11T05:48:25.088Z,10.31
2023-01-11T05:50:53.651Z,10.29
2023-01-11T05:53:21.612Z,10.26
2023-01-11T05:55:55.651Z,10.23
2023-01-11T05:58:24.169Z,10.22
2023-01-11T06:00:52.458Z,10.20
2023-01-11T06:03:19.743Z,10.18
2023-01-11T06:05:46.630Z,10.16
2023-01-11T06:08:13.537Z,10.14
2023-01-11T06:10:40.340Z,10.12
2023-01-11T06:13:25.691Z,10.10
2023-01-11T06:15:53.126Z,10.09
2023-01-11T06:18:20.175Z,10.08
2023-01-11T06:20:54.466Z,10.05
2023-01-11T06:23:22.081Z,10.04
2023-01-11T06:25:48.658Z,10.01
2023-01-11T06:28:15.468Z,9.98
2023-01-11T06:30:42.003Z,9.94
2023-01-11T06:33:08.980Z,9.91
2023-01-11T06:35:40.503Z,9.87
2023-01-11T06:38:09.242Z,9.83
2023-01-11T06:40:36.589Z,9.82
2023-01-11T06:43:03.828Z,9.79
2023-01-11T06:45:31.002Z,9.77
2023-01-11T06:47:58.141Z,9.76
2023-01-11T06:50:24.643Z,9.73
2023-01-11T06:52:56.148Z,9.70
2023-01-11T06:55:24.813Z,9.69
2023-01-11T06:57:52.337Z,9.66
2023-01-11T07:00:19.103Z,9.64
2023-01-11T07:02:47.022Z,9.62
2023-01-11T07:05:14.248Z,9.58
2023-01-11T07:07:42.075Z,9.57
2023-01-11T07:10:12.065Z,9.56
2023-01-11T07:12:38.906Z,9.53
2023-01-11T07:15:07.502Z,9.51
2023-01-11T07:17:34.201Z,9.49
2023-01-11T07:20:00.794Z,9.46
2023-01-11T07:22:27.950Z,9.46
2023-01-11T07:24:54.512Z,9.42
2023-01-11T07:27:20.980Z,9.41
2023-01-11T07:29:47.733Z,9.40
2023-01-11T07:32:14.254Z,9.38
2023-01-11T07:34:40.645Z,9.35
2023-01-11T07:37:09.443Z,9.31
2023-01-11T07:39:55.101Z,9.23
2023-01-11T07:42:40.249Z,9.18
2023-01-11T07:45:07.273Z,9.14
2023-01-11T07:47:33.687Z,9.07
2023-01-11T07:50:00.078Z,9.05
2023-01-11T07:52:26.500Z,9.00
2023-01-11T07:54:52.921Z,8.96
2023-01-11T07:57:19.369Z,8.96
2023-01-11T07:59:45.870Z,8.90
2023-01-11T08:02:12.281Z,8.87
2023-01-11T08:04:38.723Z,8.84
2023-01-11T08:07:06.278Z,8.82
2023-01-11T08:09:32.845Z,8.82
2023-01-11T08:12:17.863Z,8.83
2023-01-11T08:14:44.319Z,8.81
2023-01-11T08:17:16.874Z,8.75
2023-01-11T08:19:43.556Z,8.69
2023-01-11T08:22:10.475Z,8.66
2023-01-11T08:24:37.080Z,8.60
2023-01-11T08:27:04.667Z,8.58
2023-01-11T08:29:31.511Z,8.52
2023-01-11T08:31:59.333Z,8.47
2023-01-11T08:34:27.478Z,8.44
2023-01-11T08:36:53.935Z,8.38
2023-01-11T08:39:20.426Z,8.36
2023-01-11T08:41:46.890Z,8.36
2023-01-11T08:44:15.013Z,8.36
2023-01-11T08:46:41.619Z,8.31
2023-01-11T08:49:12.315Z,8.27
2023-01-11T08:51:40.261Z,8.25
2023-01-11T08:54:10.469Z,8.20
2023-01-11T08:56:37.273Z,8.17
2023-01-11T08:59:04.772Z,8.16
2023-01-11T09:01:32.245Z,8.15
2023-01-11T09:03:58.883Z,8.21
2023-01-11T09:06:25.685Z,8.25
2023-01-11T09:08:52.198Z,8.24
2023-01-11T09:11:37.708Z,8.23
2023-01-11T09:14:04.141Z,8.17
2023-01-11T09:16:30.571Z,8.13
2023-01-11T09:18:57.053Z,8.09
2023-01-11T09:21:23.663Z,8.08
2023-01-11T09:23:50.152Z,8.08
2023-01-11T09:26:16.602Z,8.09
2023-01-11T09:28:43.034Z,8.14
2023-01-11T09:31:09.581Z,8.23
2023-01-11T09:33:36.197Z,8.33
2023-01-11T09:36:02.966Z,8.43
2023-01-11T09:38:30.800Z,8.56
2023-01-11T09:41:25.291Z,8.76
2023-01-11T09:44:03.781Z,9.10
2023-01-11T09:46:33.178Z,9.14
2023-01-11T09:49:00.354Z,9.23
2023-01-11T09:51:33.785Z,9.27
2023-01-11T09:54:05.735Z,9.26
2023-01-11T09:56:45.713Z,9.39
2023-01-11T09:59:22.907Z,9.38
2023-01-11T10:02:24.446Z,9.49
2023-01-11T10:05:06.393Z,9.58
2023-01-11T10:14:01.324Z,9.76
2023-01-11T10:18:29.207Z,9.81
2023-01-11T10:20:12.931Z,9.91
2023-01-11T10:22:44.917Z,9.95
2023-01-11T10:25:18.838Z,10.04
2023-01-11T10:27:58.868Z,10.12
2023-01-11T10:30:32.375Z,10.14
2023-01-11T10:33:29.113Z,10.10
2023-01-11T10:36:44.964Z,9.99
2023-01-11T10:39:32.782Z,9.98
2023-01-11T10:42:11.646Z,9.97
2023-01-11T10:44:43.782Z,10.02
2023-01-11T10:47:17.784Z,10.08
2023-01-11T10:50:00.024Z,10.06
2023-01-11T10:52:41.985Z,9.96
2023-01-11T10:55:18.958Z,9.95
2023-01-11T10:58:01.732Z,9.98
2023-01-11T11:00:42.130Z,9.94
2023-01-11T11:03:33.913Z,9.84
2023-01-11T11:06:17.469Z,9.85
2023-01-11T11:08:56.631Z,9.86
2023-01-11T11:11:33.057Z,9.80
2023-01-11T11:14:14.482Z,9.79
2023-01-11T11:16:49.403Z,9.80
2023-01-11T11:19:19.861Z,9.80
2023-01-11T11:21:46.840Z,9.82
2023-01-11T11:24:22.941Z,9.83
2023-01-11T11:27:00.680Z,9.88
2023-01-11T11:29:30.633Z,9.91
2023-01-11T11:32:00.123Z,9.96
2023-01-11T11:34:28.276Z,9.88
2023-01-11T11:36:58.667Z,9.79
2023-01-11T11:39:27.235Z,9.73
2023-01-11T11:41:56.329Z,9.70
2023-01-11T11:44:25.413Z,9.67
2023-01-11T11:47:01.954Z,9.64
2023-01-11T11:49:36.363Z,9.61
2023-01-11T11:52:05.690Z,9.59
2023-01-11T11:54:40.903Z,9.55
2023-01-11T11:57:28.565Z,9.56
2023-01-11T12:00:09.214Z,9.61
2023-01-11T12:02:41.792Z,9.58
2023-01-11T12:05:10.637Z,9.52
2023-01-11T12:07:54.335Z,9.48
2023-01-11T12:10:27.668Z,9.43
2023-01-11T12:13:00.583Z,9.41
2023-01-11T12:15:32.827Z,9.41
2023-01-11T12:18:26.954Z,9.50
2023-01-11T12:20:54.632Z,9.55
2023-01-11T12:23:24.347Z,9.45
2023-01-11T12:26:09.257Z,9.43
2023-01-11T12:28:57.607Z,9.48
2023-01-11T12:31:36.785Z,9.46
2023-01-11T12:34:32.497Z,9.45
2023-01-11T12:37:17.813Z,9.51
2023-01-11T12:40:16.829Z,9.59
2023-01-11T12:43:04.465Z,9.62
2023-01-11T12:45:40.003Z,9.62
2023-01-11T12:48:25.243Z,9.57
2023-01-11T12:51:43.063Z,9.53
2023-01-11T12:54:25.512Z,9.52
2023-01-11T12:57:13.869Z,9.54
2023-01-11T12:59:59.126Z,9.49
2023-01-11T13:02:56.638Z,9.56
2023-01-11T13:05:25.766Z,9.57
2023-01-11T13:08:16.151Z,9.53
2023-01-11T13:10:48.268Z,9.56
2023-01-11T13:13:31.193Z,9.63
2023-01-11T13:16:25.287Z,9.68
2023-01-11T13:18:59.201Z,9.78
2023-01-11T13:21:34.097Z,9.81
2023-01-11T13:24:27.657Z,9.76
2023-01-11T13:26:59.799Z,9.71
2023-01-11T13:29:26.162Z,9.67
2023-01-11T13:31:55.490Z,9.69
2023-01-11T13:34:29.729Z,9.74
2023-01-11T13:37:01.629Z,9.84
2023-01-11T13:39:32.381Z,9.96
2023-01-11T13:42:04.403Z,10.07
2023-01-11T13:44:37.844Z,10.15
2023-01-11T13:47:29.084Z,10.13
2023-01-11T13:50:09.203Z,10.13
2023-01-11T13:52:57.746Z,10.09
2023-01-11T13:55:39.566Z,10.15
2023-01-11T13:58:16.499Z,10.15
2023-01-11T14:00:51.614Z,10.12
2023-01-11T14:03:28.772Z,10.06
2023-01-11T14:06:33.950Z,9.95
2023-01-11T14:09:54.823Z,9.76
2023-01-11T14:12:30.723Z,9.77
2023-01-11T14:15:21.454Z,9.81
2023-01-11T14:17:53.973Z,9.83
2023-01-11T14:20:36.417Z,9.81
2023-01-11T14:23:21.082Z,9.78
2023-01-11T14:26:06.329Z,9.75
2023-01-11T14:29:12.550Z,9.74
2023-01-11T14:31:38.962Z,9.74
2023-01-11T14:34:23.735Z,9.77
2023-01-11T14:37:18.927Z,9.71
2023-01-11T14:40:30.598Z,9.64
2023-01-11T14:43:23.486Z,9.59
2023-01-11T14:46:26.961Z,9.50
2023-01-11T14:49:17.984Z,9.47
2023-01-11T14:51:44.332Z,9.41
2023-01-11T14:54:15.413Z,9.36
2023-01-11T14:56:41.768Z,9.27
2023-01-11T14:59:40.201Z,9.24
2023-01-11T15:02:14.153Z,9.19
2023-01-11T15:04:54.706Z,9.14
2023-01-11T15:07:30.427Z,9.08
2023-01-11T15:10:23.372Z,9.03
2023-01-11T15:12:50.017Z,8.99
2023-01-11T15:15:20.414Z,8.94
2023-01-11T15:18:14.299Z,8.91
2023-01-11T15:20:56.174Z,8.90
2023-01-11T15:23:24.437Z,8.89
2023-01-11T15:26:00.870Z,8.90
2023-01-11T15:29:00.034Z,8.92
2023-01-11T15:31:49.231Z,8.92
2023-01-11T15:34:27.927Z,8.91
2023-01-11T15:37:16.380Z,8.91
2023-01-11T15:39:58.926Z,8.88
2023-01-11T15:43:02.089Z,8.85
2023-01-11T15:46:02.311Z,8.80
2023-01-11T15:49:16.717Z,8.74
2023-01-11T15:51:55.880Z,8.66
2023-01-11T15:54:49.960Z,8.63
2023-01-11T15:57:26.429Z,8.63
2023-01-11T16:00:11.863Z,8.63
2023-01-11T16:02:57.104Z,8.64
2023-01-11T16:05:36.026Z,8.63
2023-01-11T16:08:43.892Z,8.63
2023-01-11T16:11:35.852Z,8.65
2023-01-11T16:14:33.305Z,8.69
2023-01-11T16:17:00.754Z,8.70
2023-01-11T16:19:32.842Z,8.72
2023-01-11T16:22:03.506Z,8.67
2023-01-11T16:24:35.966Z,8.61
2023-01-11T16:27:04.268Z,8.51
2023-01-11T16:29:36.111Z,8.50
2023-01-11T16:32:06.431Z,8.51
2023-01-11T16:34:46.044Z,8.55
2023-01-11T16:37:43.597Z,8.51
2023-01-11T16:40:21.515Z,8.50
2023-01-11T16:42:53.878Z,8.48
2023-01-11T16:45:38.638Z,8.41
2023-01-11T16:48:06.369Z,8.29
2023-01-11T16:50:34.551Z,8.20
2023-01-11T16:53:04.176Z,8.17
2023-01-11T16:55:35.923Z,8.20
2023-01-11T16:58:18.347Z,8.21
2023-01-11T17:01:11.449Z,8.21
2023-01-11T17:03:48.217Z,8.22
2023-01-11T17:06:18.653Z,8.19
2023-01-11T17:08:52.041Z,8.21
2023-01-11T17:11:21.473Z,8.23
2023-01-11T17:14:17.801Z,8.24
2023-01-11T17:16:50.496Z,8.22
2023-01-11T17:19:16.967Z,8.19
2023-01-11T17:22:14.345Z,8.20
2023-01-11T17:24:43.349Z,8.29
2023-01-11T17:27:20.171Z,8.35
2023-01-11T17:29:47.716Z,8.36
2023-01-11T17:32:20.170Z,8.39
2023-01-11T17:34:48.953Z,8.41
2023-01-11T17:37:18.544Z,8.40
2023-01-11T17:39:49.707Z,8.40
2023-01-11T17:42:35.840Z,8.40
2023-01-11T17:45:21.673Z,8.38
2023-01-11T17:47:53.764Z,8.38
2023-01-11T17:50:30.862Z,8.39
2023-01-11T17:53:03.241Z,8.47
2023-01-11T17:55:29.968Z,8.49
2023-01-11T17:58:28.787Z,8.46
2023-01-11T18:01:04.573Z,8.42
2023-01-11T18:03:52.915Z,8.43
2023-01-11T18:06:40.417Z,8.45
2023-01-11T18:09:29.432Z,8.47
2023-01-11T18:12:08.083Z,8.53
2023-01-11T18:14:48.629Z,8.54
2023-01-11T18:17:36.736Z,8.58
2023-01-11T18:20:36.057Z,8.62
2023-01-11T18:23:20.052Z,8.65
2023-01-11T18:25:46.987Z,8.66
2023-01-11T18:28:30.343Z,8.63
2023-01-11T18:31:01.621Z,8.54
2023-01-11T18:33:32.656Z,8.46
2023-01-11T18:36:04.273Z,8.42
2023-01-11T18:38:33.499Z,8.36
2023-01-11T18:41:26.521Z,8.34
2023-01-11T18:43:54.076Z,8.29
2023-01-11T18:46:20.722Z,8.27
2023-01-11T18:48:47.230Z,8.19
2023-01-11T18:51:21.321Z,8.13
2023-01-11T18:53:47.756Z,8.12
2023-01-11T18:56:16.258Z,8.11
2023-01-11T18:58:42.891Z,8.10
2023-01-11T19:01:09.731Z,8.10
2023-01-11T19:03:37.325Z,8.13
2023-01-11T19:06:05.060Z,8.14
2023-01-11T19:08:31.753Z,8.16
2023-01-11T19:10:58.198Z,8.20
2023-01-11T19:13:24.679Z,8.24
2023-01-11T19:15:51.184Z,8.23
2023-01-11T19:18:17.637Z,8.24
2023-01-11T19:20:44.208Z,8.25
2023-01-11T19:23:10.609Z,8.20
2023-01-11T19:25:37.075Z,8.16
2023-01-11T19:28:04.828Z,8.13
2023-01-11T19:30:31.775Z,8.11
2023-01-11T19:32:58.218Z,8.09
2023-01-11T19:35:24.717Z,8.05
2023-01-11T19:37:51.773Z,8.00
2023-01-11T19:40:21.111Z,7.96
2023-01-11T19:42:47.771Z,7.94
2023-01-11T19:45:14.264Z,7.93
2023-01-11T19:47:40.716Z,7.87
2023-01-11T19:50:08.391Z,7.83
2023-01-11T19:52:34.985Z,7.80
2023-01-11T19:55:01.401Z,7.77
2023-01-11T19:57:28.725Z,7.80
2023-01-11T19:59:55.101Z,7.74
2023-01-11T20:02:21.859Z,7.68
2023-01-11T20:04:48.655Z,7.67
2023-01-11T20:07:15.778Z,7.62
2023-01-11T20:09:42.528Z,7.61
2023-01-11T20:12:11.301Z,7.56
2023-01-11T20:14:40.213Z,7.53
2023-01-11T20:17:06.759Z,7.49
2023-01-11T20:19:33.485Z,7.49
2023-01-11T20:21:59.924Z,7.48
2023-01-11T20:24:29.600Z,7.47
2023-01-11T20:26:57.855Z,7.49
2023-01-11T20:29:24.416Z,7.61
2023-01-11T20:31:51.127Z,7.61
2023-01-11T20:34:18.045Z,7.61
2023-01-11T20:36:45.105Z,7.60
2023-01-11T20:39:12.064Z,7.58
2023-01-11T20:41:47.596Z,7.57
2023-01-11T20:44:24.901Z,7.55
2023-01-11T20:46:52.872Z,7.53
2023-01-11T20:49:22.712Z,7.54
2023-01-11T20:51:49.680Z,7.54
2023-01-11T20:54:16.674Z,7.55
2023-01-11T20:56:46.257Z,7.54
2023-01-11T20:59:13.904Z,7.58
2023-01-11T21:01:40.444Z,7.59
2023-01-11T21:04:08.862Z,7.59
2023-01-11T21:06:38.430Z,7.59
2023-01-11T21:09:06.408Z,7.57
2023-01-11T21:11:33.346Z,7.57
2023-01-11T21:14:00.965Z,7.58
2023-01-11T21:16:29.216Z,7.59
2023-01-11T21:18:58.332Z,7.55
2023-01-11T21:21:27.789Z,7.53
2023-01-11T21:23:56.640Z,7.58
2023-01-11T21:26:24.605Z,7.57
2023-01-11T21:28:55.503Z,7.59
2023-01-11T21:31:22.703Z,7.61
2023-01-11T21:33:49.897Z,7.60
2023-01-11T21:36:18.980Z,7.60
2023-01-11T21:38:45.901Z,7.60
2023-01-11T21:41:13.831Z,7.61
2023-01-11T21:43:42.316Z,7.59
2023-01-11T21:46:10.355Z,7.59
2023-01-11T21:48:36.881Z,7.62
2023-01-11T21:51:06.642Z,7.62
2023-01-11T21:53:33.463Z,7.66
2023-01-11T21:56:04.941Z,7.67
2023-01-11T21:58:31.916Z,7.69
2023-01-11T22:00:58.559Z,7.73
2023-01-11T22:03:29.105Z,7.76
2023-01-11T22:06:01.715Z,7.80
2023-01-11T22:08:28.631Z,7.84
2023-01-11T22:10:57.033Z,7.89
2023-01-11T22:13:23.405Z,7.96
2023-01-11T22:15:49.767Z,8.05
2023-01-11T22:18:16.240Z,8.09
2023-01-11T22:20:42.624Z,8.11
2023-01-11T22:23:09.008Z,8.13
2023-01-11T22:25:36.000Z,8.13
2023-01-11T22:28:02.442Z,8.14
2023-01-11T22:30:28.837Z,8.13
2023-01-11T22:32:55.342Z,8.16
2023-01-11T22:35:21.968Z,8.17
2023-01-11T22:40:15.541Z,8.18
2023-01-11T22:42:42.058Z,8.18
2023-01-11T22:45:09.729Z,8.15
2023-01-11T22:47:36.202Z,8.13
2023-01-11T22:50:03.036Z,8.13
2023-01-11T22:52:29.700Z,8.11
2023-01-11T22:54:56.072Z,8.11
2023-01-11T22:57:22.512Z,8.16
2023-01-11T22:59:48.911Z,8.17
2023-01-11T23:02:15.287Z,8.20
2023-01-11T23:04:41.713Z,8.19
2023-01-11T23:07:08.158Z,8.20
2023-01-11T23:09:34.629Z,8.23
2023-01-11T23:12:19.761Z,8.23
2023-01-11T23:14:46.273Z,8.21
2023-01-11T23:17:12.777Z,8.18
2023-01-11T23:19:41.106Z,8.19
2023-01-11T23:22:09.956Z,8.16
2023-01-11T23:24:37.338Z,8.15
2023-01-11T23:27:03.887Z,8.20
2023-01-11T23:29:30.321Z,8.21
2023-01-11T23:31:56.853Z,8.19
2023-01-11T23:34:23.372Z,8.18
2023-01-11T23:36:49.816Z,8.18
2023-01-11T23:39:18.667Z,8.18
2023-01-11T23:42:03.465Z,8.17
2023-01-11T23:44:30.252Z,8.20
2023-01-11T23:47:15.105Z,8.20
2023-01-11T23:49:43.448Z,8.22
2023-01-11T23:52:10.252Z,8.21
2023-01-11T23:54:36.671Z,8.24
2023-01-11T23:57:03.706Z,8.26
2023-01-11T23:59:30.685Z,8.27
